This is the latest recevied weather packets stored in our database for station/object N2GWK. If no packets are shown the sender has not sent any weather packets the latest 10 day(s).
| Time | Temp. | Humidity | Pressure | Rain* | Wind** | Luminosity | Snow |
|---|---|---|---|---|---|---|---|
| 1777858526 | 12.78° C | 64% | 1014.7 hPa | 0 mm | - | - | - |
| 1777857930 | 13.33° C | 62% | 1014.8 hPa | 0 mm | - | - | - |
| 1777856121 | 14.44° C | 59% | 1014.7 hPa | 0 mm | - | - | - |
| 1777854916 | 15.56° C | 55% | 1014.7 hPa | 0 mm | - | - | - |
| 1777848919 | 20.56° C | 43% | 1015.4 hPa | 0 mm | - | - | - |
| 1777844726 | 19.44° C | 41% | 1016.4 hPa | 0 mm | - | - | - |
| 1777835721 | 19.44° C | 42% | 1018.8 hPa | 0 mm | - | - | - |
| 1777835144 | 18.33° C | 43% | 1018.9 hPa | 0 mm | - | - | - |
| 1777833921 | 18.89° C | 42% | 1019.2 hPa | 0 mm | - | - | - |
| 1777833338 | 18.33° C | 42% | 1019.4 hPa | 0 mm | - | - | - |
| 1777827317 | 17.22° C | 45% | 1020.8 hPa | 0 mm | - | - | - |
| 1777826721 | 17.78° C | 42% | 1021 hPa | 0 mm | - | - | - |
| 1777824920 | 16.11° C | 45% | 1021.4 hPa | 0 mm | - | - | - |
| 1777823721 | 16.67° C | 43% | 1021.5 hPa | 0 mm | - | - | - |
| 1777819533 | 13.89° C | 62% | 1021.9 hPa | 0 mm | - | - | - |
| 1777817119 | 9.44° C | 77% | 1021.9 hPa | 0 mm | - | - | - |
| 1777811131 | 3.89° C | 99% | 1021.5 hPa | 0 mm | - | - | - |
| 1777810518 | 3.33° C | 99% | 1021.5 hPa | 0 mm | - | - | - |
| 1777806339 | 0.56° C | 99% | 1020.8 hPa | 0 mm | - | - | - |
| 1777805717 | 0.56° C | 99% | 1020.8 hPa | 0 mm | - | - | - |
| 1777803332 | 0.56° C | 99% | 1020.5 hPa | 0 mm | - | - | - |
| 1777793130 | 1.67° C | 99% | 1019.9 hPa | 0 mm | - | - | - |
| 1777788920 | 3.33° C | 99% | 1019.8 hPa | 0 mm | - | - | - |
| 1777781133 | 5.56° C | 99% | 1019.8 hPa | 0 mm | - | - | - |
| 1777778133 | 6.11° C | 98% | 1019.5 hPa | 0 mm | - | - | - |
* Rain latest hour (hover to see other rain measurements)
** Current wind speed in m/s (hover to see current wind gust speed)